sensor_id;sensor_type;location;lat;lon;timestamp;temperature;humidity
71801;HTU21D;59647;55.838;37.292;2022-12-18T00:03:55;-3.16;106.43
71801;HTU21D;59647;55.838;37.292;2022-12-18T00:06:23;-3.16;106.86
71801;HTU21D;59647;55.838;37.292;2022-12-18T00:08:49;-3.17;107.40
71801;HTU21D;59647;55.838;37.292;2022-12-18T00:11:17;-3.12;106.77
71801;HTU21D;59647;55.838;37.292;2022-12-18T00:13:44;-3.24;108.81
71801;HTU21D;59647;55.838;37.292;2022-12-18T00:16:14;-3.22;108.69
71801;HTU21D;59647;55.838;37.292;2022-12-18T00:18:41;-3.19;107.45
71801;HTU21D;59647;55.838;37.292;2022-12-18T00:21:09;-3.16;106.43
71801;HTU21D;59647;55.838;37.292;2022-12-18T00:23:36;-3.15;106.53
71801;HTU21D;59647;55.838;37.292;2022-12-18T00:26:16;-3.13;106.78
71801;HTU21D;59647;55.838;37.292;2022-12-18T00:28:43;-3.18;107.52
71801;HTU21D;59647;55.838;37.292;2022-12-18T00:31:21;-3.20;107.46
71801;HTU21D;59647;55.838;37.292;2022-12-18T00:33:47;-3.16;106.50
71801;HTU21D;59647;55.838;37.292;2022-12-18T00:36:19;-3.28;109.55
71801;HTU21D;59647;55.838;37.292;2022-12-18T00:38:46;-3.17;106.68
71801;HTU21D;59647;55.838;37.292;2022-12-18T00:41:14;-3.21;108.09
71801;HTU21D;59647;55.838;37.292;2022-12-18T00:44:00;-3.17;106.54
71801;HTU21D;59647;55.838;37.292;2022-12-18T00:46:26;-3.22;107.02
71801;HTU21D;59647;55.838;37.292;2022-12-18T00:48:51;-3.36;110.21
71801;HTU21D;59647;55.838;37.292;2022-12-18T00:51:17;-3.28;108.18
71801;HTU21D;59647;55.838;37.292;2022-12-18T00:53:43;-3.24;107.47
71801;HTU21D;59647;55.838;37.292;2022-12-18T00:56:09;-3.23;106.59
71801;HTU21D;59647;55.838;37.292;2022-12-18T00:58:35;-3.22;106.69
71801;HTU21D;59647;55.838;37.292;2022-12-18T01:01:04;-3.23;106.91
71801;HTU21D;59647;55.838;37.292;2022-12-18T01:03:33;-3.20;106.37
71801;HTU21D;59647;55.838;37.292;2022-12-18T01:05:58;-3.21;106.61
71801;HTU21D;59647;55.838;37.292;2022-12-18T01:08:24;-3.30;108.14
71801;HTU21D;59647;55.838;37.292;2022-12-18T01:10:50;-3.26;106.97
71801;HTU21D;59647;55.838;37.292;2022-12-18T01:13:16;-3.25;107.47
71801;HTU21D;59647;55.838;37.292;2022-12-18T01:15:49;-3.33;109.26
71801;HTU21D;59647;55.838;37.292;2022-12-18T01:18:16;-3.25;106.80
71801;HTU21D;59647;55.838;37.292;2022-12-18T01:20:42;-3.30;108.18
71801;HTU21D;59647;55.838;37.292;2022-12-18T01:23:07;-3.31;108.45
71801;HTU21D;59647;55.838;37.292;2022-12-18T01:25:35;-3.24;106.79
71801;HTU21D;59647;55.838;37.292;2022-12-18T01:28:02;-3.20;105.90
71801;HTU21D;59647;55.838;37.292;2022-12-18T01:30:27;-3.33;106.82
71801;HTU21D;59647;55.838;37.292;2022-12-18T01:32:53;-3.30;106.19
71801;HTU21D;59647;55.838;37.292;2022-12-18T01:35:19;-3.27;106.15
71801;HTU21D;59647;55.838;37.292;2022-12-18T01:37:45;-3.32;106.12
71801;HTU21D;59647;55.838;37.292;2022-12-18T01:40:11;-3.32;106.21
71801;HTU21D;59647;55.838;37.292;2022-12-18T01:42:38;-3.36;107.61
71801;HTU21D;59647;55.838;37.292;2022-12-18T01:47:54;-3.42;107.14
71801;HTU21D;59647;55.838;37.292;2022-12-18T01:50:40;-3.34;105.87
71801;HTU21D;59647;55.838;37.292;2022-12-18T01:53:12;-3.41;106.51
71801;HTU21D;59647;55.838;37.292;2022-12-18T01:55:51;-3.43;106.81
71801;HTU21D;59647;55.838;37.292;2022-12-18T01:58:19;-3.39;105.57
71801;HTU21D;59647;55.838;37.292;2022-12-18T02:00:46;-3.46;106.66
71801;HTU21D;59647;55.838;37.292;2022-12-18T02:03:12;-3.43;106.07
71801;HTU21D;59647;55.838;37.292;2022-12-18T02:08:21;-3.41;105.39
71801;HTU21D;59647;55.838;37.292;2022-12-18T02:11:20;-3.46;106.05
71801;HTU21D;59647;55.838;37.292;2022-12-18T02:16:52;-3.56;107.19
71801;HTU21D;59647;55.838;37.292;2022-12-18T02:27:19;-3.45;104.76
71801;HTU21D;59647;55.838;37.292;2022-12-18T02:29:53;-3.46;104.92
71801;HTU21D;59647;55.838;37.292;2022-12-18T02:32:29;-3.49;104.94
71801;HTU21D;59647;55.838;37.292;2022-12-18T02:34:58;-3.56;105.35
71801;HTU21D;59647;55.838;37.292;2022-12-18T02:37:29;-3.57;105.95
71801;HTU21D;59647;55.838;37.292;2022-12-18T02:39:59;-3.54;105.24
71801;HTU21D;59647;55.838;37.292;2022-12-18T02:42:26;-3.56;105.14
71801;HTU21D;59647;55.838;37.292;2022-12-18T02:44:56;-3.55;105.70
71801;HTU21D;59647;55.838;37.292;2022-12-18T02:47:28;-3.51;105.33
71801;HTU21D;59647;55.838;37.292;2022-12-18T02:50:10;-3.54;105.56
71801;HTU21D;59647;55.838;37.292;2022-12-18T02:56:10;-3.64;105.93
71801;HTU21D;59647;55.838;37.292;2022-12-18T02:58:58;-3.57;105.29
71801;HTU21D;59647;55.838;37.292;2022-12-18T03:04:14;-3.60;105.29
71801;HTU21D;59647;55.838;37.292;2022-12-18T03:06:46;-3.58;104.44
71801;HTU21D;59647;55.838;37.292;2022-12-18T03:17:23;-3.68;105.97
71801;HTU21D;59647;55.838;37.292;2022-12-18T03:19:52;-3.65;105.71
71801;HTU21D;59647;55.838;37.292;2022-12-18T03:22:20;-3.70;105.58
71801;HTU21D;59647;55.838;37.292;2022-12-18T03:24:51;-3.67;105.05
71801;HTU21D;59647;55.838;37.292;2022-12-18T03:27:18;-3.72;106.27
71801;HTU21D;59647;55.838;37.292;2022-12-18T03:30:06;-3.72;105.29
71801;HTU21D;59647;55.838;37.292;2022-12-18T03:33:10;-3.78;105.46
71801;HTU21D;59647;55.838;37.292;2022-12-18T03:35:39;-3.70;104.33
71801;HTU21D;59647;55.838;37.292;2022-12-18T03:38:07;-3.75;104.58
71801;HTU21D;59647;55.838;37.292;2022-12-18T03:44:07;-3.84;106.58
71801;HTU21D;59647;55.838;37.292;2022-12-18T03:46:54;-3.91;108.56
71801;HTU21D;59647;55.838;37.292;2022-12-18T03:52:22;-3.86;106.48
71801;HTU21D;59647;55.838;37.292;2022-12-18T03:54:53;-3.86;106.13
71801;HTU21D;59647;55.838;37.292;2022-12-18T03:57:25;-3.86;106.21
71801;HTU21D;59647;55.838;37.292;2022-12-18T03:59:57;-3.87;106.79
71801;HTU21D;59647;55.838;37.292;2022-12-18T04:02:30;-3.90;107.38
71801;HTU21D;59647;55.838;37.292;2022-12-18T04:05:01;-3.89;107.01
71801;HTU21D;59647;55.838;37.292;2022-12-18T04:07:29;-3.90;107.43
71801;HTU21D;59647;55.838;37.292;2022-12-18T04:09:58;-3.91;107.27
71801;HTU21D;59647;55.838;37.292;2022-12-18T04:12:26;-3.89;107.33
71801;HTU21D;59647;55.838;37.292;2022-12-18T04:14:55;-3.84;106.59
71801;HTU21D;59647;55.838;37.292;2022-12-18T04:17:22;-3.87;106.86
71801;HTU21D;59647;55.838;37.292;2022-12-18T04:19:49;-3.93;107.43
71801;HTU21D;59647;55.838;37.292;2022-12-18T04:22:15;-3.93;106.90
71801;HTU21D;59647;55.838;37.292;2022-12-18T04:24:46;-3.94;106.66
71801;HTU21D;59647;55.838;37.292;2022-12-18T04:27:20;-4.01;110.32
71801;HTU21D;59647;55.838;37.292;2022-12-18T04:29:49;-3.91;107.68
71801;HTU21D;59647;55.838;37.292;2022-12-18T04:32:17;-3.85;107.25
71801;HTU21D;59647;55.838;37.292;2022-12-18T04:34:43;-3.93;108.56
71801;HTU21D;59647;55.838;37.292;2022-12-18T04:37:10;-3.87;106.97
71801;HTU21D;59647;55.838;37.292;2022-12-18T04:39:37;-3.92;107.10
71801;HTU21D;59647;55.838;37.292;2022-12-18T04:42:09;-3.94;106.89
71801;HTU21D;59647;55.838;37.292;2022-12-18T04:44:36;-3.93;106.71
71801;HTU21D;59647;55.838;37.292;2022-12-18T04:47:02;-3.95;106.51
71801;HTU21D;59647;55.838;37.292;2022-12-18T04:49:28;-3.96;106.48
71801;HTU21D;59647;55.838;37.292;2022-12-18T04:51:55;-4.04;105.50
71801;HTU21D;59647;55.838;37.292;2022-12-18T04:54:23;-3.98;106.15
71801;HTU21D;59647;55.838;37.292;2022-12-18T04:56:50;-4.00;106.17
71801;HTU21D;59647;55.838;37.292;2022-12-18T04:59:17;-3.94;105.20
71801;HTU21D;59647;55.838;37.292;2022-12-18T05:01:43;-3.95;105.09
71801;HTU21D;59647;55.838;37.292;2022-12-18T05:04:09;-3.98;105.16
71801;HTU21D;59647;55.838;37.292;2022-12-18T05:06:35;-3.96;103.93
71801;HTU21D;59647;55.838;37.292;2022-12-18T05:09:01;-4.12;105.60
71801;HTU21D;59647;55.838;37.292;2022-12-18T05:11:26;-4.07;104.73
71801;HTU21D;59647;55.838;37.292;2022-12-18T05:13:52;-4.09;104.91
71801;HTU21D;59647;55.838;37.292;2022-12-18T05:16:21;-4.05;104.63
71801;HTU21D;59647;55.838;37.292;2022-12-18T05:18:47;-4.16;106.56
71801;HTU21D;59647;55.838;37.292;2022-12-18T05:21:13;-4.09;104.57
71801;HTU21D;59647;55.838;37.292;2022-12-18T05:23:39;-4.12;105.27
71801;HTU21D;59647;55.838;37.292;2022-12-18T05:26:06;-4.09;104.69
71801;HTU21D;59647;55.838;37.292;2022-12-18T05:28:34;-4.13;104.99
71801;HTU21D;59647;55.838;37.292;2022-12-18T05:31:02;-4.15;106.11
71801;HTU21D;59647;55.838;37.292;2022-12-18T05:33:33;-4.13;105.16
71801;HTU21D;59647;55.838;37.292;2022-12-18T05:36:01;-4.24;106.44
71801;HTU21D;59647;55.838;37.292;2022-12-18T05:38:27;-4.12;105.21
71801;HTU21D;59647;55.838;37.292;2022-12-18T05:40:54;-4.16;105.11
71801;HTU21D;59647;55.838;37.292;2022-12-18T05:43:21;-4.17;106.17
71801;HTU21D;59647;55.838;37.292;2022-12-18T05:45:48;-4.13;104.58
71801;HTU21D;59647;55.838;37.292;2022-12-18T05:48:15;-4.21;105.86
71801;HTU21D;59647;55.838;37.292;2022-12-18T05:50:43;-4.11;104.73
71801;HTU21D;59647;55.838;37.292;2022-12-18T05:53:11;-4.16;104.79
71801;HTU21D;59647;55.838;37.292;2022-12-18T05:55:39;-4.15;104.99
71801;HTU21D;59647;55.838;37.292;2022-12-18T05:58:07;-4.17;105.51
71801;HTU21D;59647;55.838;37.292;2022-12-18T06:00:36;-4.14;104.77
71801;HTU21D;59647;55.838;37.292;2022-12-18T06:03:06;-4.12;104.23
71801;HTU21D;59647;55.838;37.292;2022-12-18T06:05:40;-4.11;104.25
71801;HTU21D;59647;55.838;37.292;2022-12-18T06:08:06;-4.24;105.15
71801;HTU21D;59647;55.838;37.292;2022-12-18T06:10:32;-4.20;105.08
71801;HTU21D;59647;55.838;37.292;2022-12-18T06:13:01;-4.26;105.99
71801;HTU21D;59647;55.838;37.292;2022-12-18T06:15:29;-4.17;105.52
71801;HTU21D;59647;55.838;37.292;2022-12-18T06:17:56;-4.27;105.74
71801;HTU21D;59647;55.838;37.292;2022-12-18T06:20:24;-4.22;105.52
71801;HTU21D;59647;55.838;37.292;2022-12-18T06:22:51;-4.23;106.35
71801;HTU21D;59647;55.838;37.292;2022-12-18T06:25:17;-4.17;105.93
71801;HTU21D;59647;55.838;37.292;2022-12-18T06:27:43;-4.16;105.55
71801;HTU21D;59647;55.838;37.292;2022-12-18T06:30:11;-4.15;105.40
71801;HTU21D;59647;55.838;37.292;2022-12-18T06:32:38;-4.14;105.28
71801;HTU21D;59647;55.838;37.292;2022-12-18T06:35:04;-4.20;105.81
71801;HTU21D;59647;55.838;37.292;2022-12-18T06:37:33;-4.17;106.10
71801;HTU21D;59647;55.838;37.292;2022-12-18T06:40:00;-4.12;106.42
71801;HTU21D;59647;55.838;37.292;2022-12-18T06:42:28;-4.09;106.77
71801;HTU21D;59647;55.838;37.292;2022-12-18T06:44:54;-4.05;105.38
71801;HTU21D;59647;55.838;37.292;2022-12-18T06:47:20;-4.01;104.85
71801;HTU21D;59647;55.838;37.292;2022-12-18T06:49:46;-4.05;104.76
71801;HTU21D;59647;55.838;37.292;2022-12-18T06:52:16;-4.06;104.92
71801;HTU21D;59647;55.838;37.292;2022-12-18T06:54:42;-4.05;104.73
71801;HTU21D;59647;55.838;37.292;2022-12-18T06:57:07;-3.97;104.10
71801;HTU21D;59647;55.838;37.292;2022-12-18T06:59:33;-4.02;104.45
71801;HTU21D;59647;55.838;37.292;2022-12-18T07:01:59;-3.97;104.37
71801;HTU21D;59647;55.838;37.292;2022-12-18T07:04:30;-3.99;103.70
71801;HTU21D;59647;55.838;37.292;2022-12-18T07:06:56;-4.05;104.28
71801;HTU21D;59647;55.838;37.292;2022-12-18T07:09:24;-4.04;104.99
71801;HTU21D;59647;55.838;37.292;2022-12-18T07:11:50;-3.96;104.31
71801;HTU21D;59647;55.838;37.292;2022-12-18T07:14:16;-3.99;104.85
71801;HTU21D;59647;55.838;37.292;2022-12-18T07:16:42;-3.97;104.32
71801;HTU21D;59647;55.838;37.292;2022-12-18T07:19:08;-3.97;104.67
71801;HTU21D;59647;55.838;37.292;2022-12-18T07:21:34;-3.84;104.50
71801;HTU21D;59647;55.838;37.292;2022-12-18T07:24:00;-3.89;104.34
71801;HTU21D;59647;55.838;37.292;2022-12-18T07:26:26;-3.83;104.15
71801;HTU21D;59647;55.838;37.292;2022-12-18T07:28:55;-3.79;103.10
71801;HTU21D;59647;55.838;37.292;2022-12-18T07:31:25;-3.85;103.62
71801;HTU21D;59647;55.838;37.292;2022-12-18T07:33:52;-3.79;103.57
71801;HTU21D;59647;55.838;37.292;2022-12-18T07:36:22;-3.71;102.57
71801;HTU21D;59647;55.838;37.292;2022-12-18T07:38:49;-3.76;102.40
71801;HTU21D;59647;55.838;37.292;2022-12-18T07:41:16;-3.72;103.54
71801;HTU21D;59647;55.838;37.292;2022-12-18T07:43:41;-3.65;102.99
71801;HTU21D;59647;55.838;37.292;2022-12-18T07:46:08;-3.74;102.42
71801;HTU21D;59647;55.838;37.292;2022-12-18T07:48:37;-3.63;102.79
71801;HTU21D;59647;55.838;37.292;2022-12-18T07:51:05;-3.62;102.66
71801;HTU21D;59647;55.838;37.292;2022-12-18T07:53:32;-3.62;102.04
71801;HTU21D;59647;55.838;37.292;2022-12-18T07:56:05;-3.66;102.18
71801;HTU21D;59647;55.838;37.292;2022-12-18T07:58:34;-3.58;101.98
71801;HTU21D;59647;55.838;37.292;2022-12-18T08:01:09;-3.69;102.42
71801;HTU21D;59647;55.838;37.292;2022-12-18T08:03:36;-3.61;102.35
71801;HTU21D;59647;55.838;37.292;2022-12-18T08:06:06;-3.62;102.73
71801;HTU21D;59647;55.838;37.292;2022-12-18T08:08:32;-3.52;102.74
71801;HTU21D;59647;55.838;37.292;2022-12-18T08:11:00;-3.53;102.42
71801;HTU21D;59647;55.838;37.292;2022-12-18T08:13:27;-3.47;102.21
71801;HTU21D;59647;55.838;37.292;2022-12-18T08:16:01;-3.42;102.37
71801;HTU21D;59647;55.838;37.292;2022-12-18T08:18:28;-3.41;102.33
71801;HTU21D;59647;55.838;37.292;2022-12-18T08:20:57;-3.36;102.62
71801;HTU21D;59647;55.838;37.292;2022-12-18T08:23:24;-3.36;103.02
71801;HTU21D;59647;55.838;37.292;2022-12-18T08:25:51;-3.33;102.59
71801;HTU21D;59647;55.838;37.292;2022-12-18T08:28:21;-3.30;102.72
71801;HTU21D;59647;55.838;37.292;2022-12-18T08:30:52;-3.28;103.09
71801;HTU21D;59647;55.838;37.292;2022-12-18T08:33:19;-3.22;102.22
71801;HTU21D;59647;55.838;37.292;2022-12-18T08:35:48;-3.30;102.39
71801;HTU21D;59647;55.838;37.292;2022-12-18T08:38:14;-3.18;102.32
71801;HTU21D;59647;55.838;37.292;2022-12-18T08:40:41;-3.18;102.33
71801;HTU21D;59647;55.838;37.292;2022-12-18T08:43:12;-3.17;102.27
71801;HTU21D;59647;55.838;37.292;2022-12-18T08:45:56;-3.27;103.08
71801;HTU21D;59647;55.838;37.292;2022-12-18T08:48:24;-3.15;102.81
71801;HTU21D;59647;55.838;37.292;2022-12-18T08:50:58;-3.21;103.40
71801;HTU21D;59647;55.838;37.292;2022-12-18T08:53:27;-3.16;102.83
71801;HTU21D;59647;55.838;37.292;2022-12-18T08:55:56;-3.13;103.04
71801;HTU21D;59647;55.838;37.292;2022-12-18T08:58:37;-3.11;102.43
71801;HTU21D;59647;55.838;37.292;2022-12-18T09:01:08;-3.10;102.73
71801;HTU21D;59647;55.838;37.292;2022-12-18T09:03:47;-3.19;103.52
71801;HTU21D;59647;55.838;37.292;2022-12-18T09:06:15;-3.12;102.76
71801;HTU21D;59647;55.838;37.292;2022-12-18T09:08:43;-3.08;102.12
71801;HTU21D;59647;55.838;37.292;2022-12-18T09:11:25;-3.03;101.82
71801;HTU21D;59647;55.838;37.292;2022-12-18T09:13:53;-3.02;101.18
71801;HTU21D;59647;55.838;37.292;2022-12-18T09:16:21;-3.06;101.24
71801;HTU21D;59647;55.838;37.292;2022-12-18T09:18:49;-3.08;101.22
71801;HTU21D;59647;55.838;37.292;2022-12-18T09:21:18;-3.10;101.83
71801;HTU21D;59647;55.838;37.292;2022-12-18T09:23:52;-3.04;101.45
71801;HTU21D;59647;55.838;37.292;2022-12-18T09:26:19;-3.08;101.83
71801;HTU21D;59647;55.838;37.292;2022-12-18T09:28:45;-3.12;102.77
71801;HTU21D;59647;55.838;37.292;2022-12-18T09:31:14;-3.11;103.40
71801;HTU21D;59647;55.838;37.292;2022-12-18T09:33:41;-3.05;101.94
71801;HTU21D;59647;55.838;37.292;2022-12-18T09:36:09;-3.04;102.53
71801;HTU21D;59647;55.838;37.292;2022-12-18T09:38:37;-2.98;102.40
71801;HTU21D;59647;55.838;37.292;2022-12-18T09:41:24;-2.98;102.59
71801;HTU21D;59647;55.838;37.292;2022-12-18T09:43:55;-3.00;102.02
71801;HTU21D;59647;55.838;37.292;2022-12-18T09:46:34;-2.97;101.85
71801;HTU21D;59647;55.838;37.292;2022-12-18T09:49:09;-3.00;101.80
71801;HTU21D;59647;55.838;37.292;2022-12-18T09:51:43;-3.05;101.49
71801;HTU21D;59647;55.838;37.292;2022-12-18T09:54:22;-3.01;101.28
71801;HTU21D;59647;55.838;37.292;2022-12-18T09:56:50;-3.15;103.58
71801;HTU21D;59647;55.838;37.292;2022-12-18T09:59:29;-3.10;102.87
71801;HTU21D;59647;55.838;37.292;2022-12-18T10:01:58;-3.10;102.30
71801;HTU21D;59647;55.838;37.292;2022-12-18T10:04:27;-3.08;102.40
71801;HTU21D;59647;55.838;37.292;2022-12-18T10:07:03;-3.09;102.67
71801;HTU21D;59647;55.838;37.292;2022-12-18T10:10:01;-3.04;102.16
71801;HTU21D;59647;55.838;37.292;2022-12-18T10:15:31;-3.12;102.27
71801;HTU21D;59647;55.838;37.292;2022-12-18T10:18:15;-3.06;102.35
71801;HTU21D;59647;55.838;37.292;2022-12-18T10:20:49;-3.09;102.74
71801;HTU21D;59647;55.838;37.292;2022-12-18T10:26:04;-3.04;103.41
71801;HTU21D;59647;55.838;37.292;2022-12-18T10:28:36;-3.06;102.42
71801;HTU21D;59647;55.838;37.292;2022-12-18T10:31:05;-3.06;101.89
71801;HTU21D;59647;55.838;37.292;2022-12-18T10:33:33;-3.15;102.70
71801;HTU21D;59647;55.838;37.292;2022-12-18T10:35:59;-3.13;102.26
71801;HTU21D;59647;55.838;37.292;2022-12-18T10:38:29;-3.20;102.18
71801;HTU21D;59647;55.838;37.292;2022-12-18T10:41:03;-3.22;102.17
71801;HTU21D;59647;55.838;37.292;2022-12-18T10:43:35;-3.30;102.99
71801;HTU21D;59647;55.838;37.292;2022-12-18T10:51:06;-3.32;103.32
71801;HTU21D;59647;55.838;37.292;2022-12-18T10:53:34;-3.32;103.21
71801;HTU21D;59647;55.838;37.292;2022-12-18T10:56:04;-3.27;102.83
71801;HTU21D;59647;55.838;37.292;2022-12-18T10:58:34;-3.33;103.45
71801;HTU21D;59647;55.838;37.292;2022-12-18T11:06:20;-3.33;104.61
71801;HTU21D;59647;55.838;37.292;2022-12-18T11:09:03;-3.18;103.66
71801;HTU21D;59647;55.838;37.292;2022-12-18T11:11:32;-3.19;103.50
71801;HTU21D;59647;55.838;37.292;2022-12-18T11:14:03;-3.21;103.50
71801;HTU21D;59647;55.838;37.292;2022-12-18T11:16:36;-3.16;102.84
71801;HTU21D;59647;55.838;37.292;2022-12-18T11:22:27;-3.17;102.46
71801;HTU21D;59647;55.838;37.292;2022-12-18T11:27:33;-3.25;102.40
71801;HTU21D;59647;55.838;37.292;2022-12-18T11:30:21;-3.18;103.07
71801;HTU21D;59647;55.838;37.292;2022-12-18T11:35:30;-3.16;102.15
71801;HTU21D;59647;55.838;37.292;2022-12-18T11:38:39;-3.13;102.20
71801;HTU21D;59647;55.838;37.292;2022-12-18T11:41:25;-3.18;102.22
71801;HTU21D;59647;55.838;37.292;2022-12-18T11:44:18;-3.27;103.62
71801;HTU21D;59647;55.838;37.292;2022-12-18T11:47:01;-3.19;103.42
71801;HTU21D;59647;55.838;37.292;2022-12-18T11:49:35;-3.18;102.99
71801;HTU21D;59647;55.838;37.292;2022-12-18T11:54:39;-3.17;103.23
71801;HTU21D;59647;55.838;37.292;2022-12-18T11:58:01;-3.19;103.41
71801;HTU21D;59647;55.838;37.292;2022-12-18T12:00:20;-3.20;103.46
71801;HTU21D;59647;55.838;37.292;2022-12-18T12:03:21;-3.16;103.15
71801;HTU21D;59647;55.838;37.292;2022-12-18T12:08:53;-3.18;104.13
71801;HTU21D;59647;55.838;37.292;2022-12-18T12:14:10;-3.11;103.04
71801;HTU21D;59647;55.838;37.292;2022-12-18T12:19:53;-3.11;102.44
71801;HTU21D;59647;55.838;37.292;2022-12-18T12:22:37;-3.07;102.83
71801;HTU21D;59647;55.838;37.292;2022-12-18T12:25:40;-3.09;102.02
71801;HTU21D;59647;55.838;37.292;2022-12-18T12:28:09;-3.17;103.03
71801;HTU21D;59647;55.838;37.292;2022-12-18T12:39:18;-3.17;103.21
71801;HTU21D;59647;55.838;37.292;2022-12-18T12:41:46;-3.10;102.40
71801;HTU21D;59647;55.838;37.292;2022-12-18T12:44:41;-3.20;105.06
71801;HTU21D;59647;55.838;37.292;2022-12-18T12:47:32;-3.02;103.47
71801;HTU21D;59647;55.838;37.292;2022-12-18T12:50:02;-3.03;103.50
71801;HTU21D;59647;55.838;37.292;2022-12-18T12:54:58;-2.86;103.77
71801;HTU21D;59647;55.838;37.292;2022-12-18T12:57:34;-2.89;102.75
71801;HTU21D;59647;55.838;37.292;2022-12-18T13:00:14;-2.87;103.62
71801;HTU21D;59647;55.838;37.292;2022-12-18T13:05:56;-2.87;105.28
71801;HTU21D;59647;55.838;37.292;2022-12-18T13:08:28;-2.74;106.41
71801;HTU21D;59647;55.838;37.292;2022-12-18T13:10:55;-2.69;105.43
71801;HTU21D;59647;55.838;37.292;2022-12-18T13:13:51;-2.60;104.47
71801;HTU21D;59647;55.838;37.292;2022-12-18T13:16:19;-2.50;103.45
71801;HTU21D;59647;55.838;37.292;2022-12-18T13:18:57;-2.62;101.98
71801;HTU21D;59647;55.838;37.292;2022-12-18T13:21:28;-2.66;101.93
71801;HTU21D;59647;55.838;37.292;2022-12-18T13:23:55;-2.74;101.80
71801;HTU21D;59647;55.838;37.292;2022-12-18T13:29:42;-2.86;101.90
71801;HTU21D;59647;55.838;37.292;2022-12-18T13:32:22;-2.91;101.77
71801;HTU21D;59647;55.838;37.292;2022-12-18T13:37:54;-2.88;102.43
71801;HTU21D;59647;55.838;37.292;2022-12-18T13:46:20;-2.80;102.06
71801;HTU21D;59647;55.838;37.292;2022-12-18T13:48:55;-2.91;102.67
71801;HTU21D;59647;55.838;37.292;2022-12-18T13:51:23;-2.87;102.60
71801;HTU21D;59647;55.838;37.292;2022-12-18T13:53:52;-2.86;101.51
71801;HTU21D;59647;55.838;37.292;2022-12-18T13:56:25;-2.89;101.90
71801;HTU21D;59647;55.838;37.292;2022-12-18T14:01:56;-2.88;102.66
71801;HTU21D;59647;55.838;37.292;2022-12-18T14:04:31;-2.77;102.47
71801;HTU21D;59647;55.838;37.292;2022-12-18T14:07:15;-2.69;100.88
71801;HTU21D;59647;55.838;37.292;2022-12-18T14:09:50;-2.76;100.32
71801;HTU21D;59647;55.838;37.292;2022-12-18T14:12:22;-2.83;100.08
71801;HTU21D;59647;55.838;37.292;2022-12-18T14:17:46;-2.75;99.73
71801;HTU21D;59647;55.838;37.292;2022-12-18T14:20:17;-2.80;99.63
71801;HTU21D;59647;55.838;37.292;2022-12-18T14:22:47;-2.71;101.13
71801;HTU21D;59647;55.838;37.292;2022-12-18T14:25:20;-2.72;100.41
71801;HTU21D;59647;55.838;37.292;2022-12-18T14:30:44;-2.81;97.76
71801;HTU21D;59647;55.838;37.292;2022-12-18T14:33:14;-2.81;98.32
71801;HTU21D;59647;55.838;37.292;2022-12-18T14:38:48;-3.07;98.24
71801;HTU21D;59647;55.838;37.292;2022-12-18T14:41:19;-3.03;100.36
71801;HTU21D;59647;55.838;37.292;2022-12-18T14:43:53;-2.89;100.62
71801;HTU21D;59647;55.838;37.292;2022-12-18T14:51:53;-2.77;99.58
71801;HTU21D;59647;55.838;37.292;2022-12-18T14:54:23;-2.67;100.16
71801;HTU21D;59647;55.838;37.292;2022-12-18T14:59:32;-2.81;97.96
71801;HTU21D;59647;55.838;37.292;2022-12-18T15:02:28;-2.84;98.66
71801;HTU21D;59647;55.838;37.292;2022-12-18T15:07:41;-2.90;99.12
71801;HTU21D;59647;55.838;37.292;2022-12-18T15:13:08;-2.76;98.86
71801;HTU21D;59647;55.838;37.292;2022-12-18T15:18:12;-2.78;97.36
71801;HTU21D;59647;55.838;37.292;2022-12-18T15:20:43;-2.76;96.80
71801;HTU21D;59647;55.838;37.292;2022-12-18T15:26:05;-3.08;93.48
71801;HTU21D;59647;55.838;37.292;2022-12-18T15:28:35;-3.11;97.02
71801;HTU21D;59647;55.838;37.292;2022-12-18T15:31:20;-3.16;96.58
71801;HTU21D;59647;55.838;37.292;2022-12-18T15:36:22;-3.27;94.93
71801;HTU21D;59647;55.838;37.292;2022-12-18T15:38:53;-3.27;95.24
71801;HTU21D;59647;55.838;37.292;2022-12-18T15:41:23;-3.51;96.03
71801;HTU21D;59647;55.838;37.292;2022-12-18T15:43:52;-3.47;97.23
71801;HTU21D;59647;55.838;37.292;2022-12-18T15:46:19;-3.47;97.78
71801;HTU21D;59647;55.838;37.292;2022-12-18T15:48:55;-3.45;96.31
71801;HTU21D;59647;55.838;37.292;2022-12-18T15:51:34;-3.36;95.68
71801;HTU21D;59647;55.838;37.292;2022-12-18T15:54:05;-3.28;95.61
71801;HTU21D;59647;55.838;37.292;2022-12-18T15:56:35;-3.40;92.34
71801;HTU21D;59647;55.838;37.292;2022-12-18T15:59:22;-3.67;90.52
71801;HTU21D;59647;55.838;37.292;2022-12-18T16:01:50;-3.78;89.79
71801;HTU21D;59647;55.838;37.292;2022-12-18T16:04:19;-3.95;90.33
71801;HTU21D;59647;55.838;37.292;2022-12-18T16:06:48;-4.21;91.38
71801;HTU21D;59647;55.838;37.292;2022-12-18T16:09:14;-4.43;91.76
71801;HTU21D;59647;55.838;37.292;2022-12-18T16:11:43;-4.50;92.98
71801;HTU21D;59647;55.838;37.292;2022-12-18T16:14:17;-4.28;96.40
71801;HTU21D;59647;55.838;37.292;2022-12-18T16:16:46;-4.21;94.24
71801;HTU21D;59647;55.838;37.292;2022-12-18T16:19:14;-4.24;93.57
71801;HTU21D;59647;55.838;37.292;2022-12-18T16:21:41;-4.16;95.39
71801;HTU21D;59647;55.838;37.292;2022-12-18T16:24:21;-4.29;92.89
71801;HTU21D;59647;55.838;37.292;2022-12-18T16:26:50;-4.31;93.45
71801;HTU21D;59647;55.838;37.292;2022-12-18T16:29:20;-4.24;94.09
71801;HTU21D;59647;55.838;37.292;2022-12-18T16:31:56;-4.17;93.79
71801;HTU21D;59647;55.838;37.292;2022-12-18T16:34:26;-4.12;94.08
71801;HTU21D;59647;55.838;37.292;2022-12-18T16:37:04;-4.04;94.04
71801;HTU21D;59647;55.838;37.292;2022-12-18T16:39:34;-4.06;94.28
71801;HTU21D;59647;55.838;37.292;2022-12-18T16:42:05;-4.12;94.52
71801;HTU21D;59647;55.838;37.292;2022-12-18T16:44:33;-4.07;94.75
71801;HTU21D;59647;55.838;37.292;2022-12-18T16:47:00;-4.08;92.85
71801;HTU21D;59647;55.838;37.292;2022-12-18T16:49:30;-4.02;93.78
71801;HTU21D;59647;55.838;37.292;2022-12-18T16:51:58;-4.06;91.60
71801;HTU21D;59647;55.838;37.292;2022-12-18T16:54:28;-4.01;91.42
71801;HTU21D;59647;55.838;37.292;2022-12-18T16:57:00;-4.08;89.79
71801;HTU21D;59647;55.838;37.292;2022-12-18T16:59:26;-4.24;88.52
71801;HTU21D;59647;55.838;37.292;2022-12-18T17:01:53;-4.35;93.01
71801;HTU21D;59647;55.838;37.292;2022-12-18T17:04:20;-4.46;91.31
71801;HTU21D;59647;55.838;37.292;2022-12-18T17:06:46;-4.71;89.58
71801;HTU21D;59647;55.838;37.292;2022-12-18T17:09:20;-4.76;93.56
71801;HTU21D;59647;55.838;37.292;2022-12-18T17:11:51;-4.60;94.55
71801;HTU21D;59647;55.838;37.292;2022-12-18T17:14:23;-4.63;93.69
71801;HTU21D;59647;55.838;37.292;2022-12-18T17:16:51;-4.54;94.55
71801;HTU21D;59647;55.838;37.292;2022-12-18T17:19:20;-4.42;94.56
71801;HTU21D;59647;55.838;37.292;2022-12-18T17:21:50;-4.49;90.23
71801;HTU21D;59647;55.838;37.292;2022-12-18T17:24:20;-4.53;93.20
71801;HTU21D;59647;55.838;37.292;2022-12-18T17:26:46;-4.56;92.82
71801;HTU21D;59647;55.838;37.292;2022-12-18T17:29:15;-4.52;93.36